sensor_id;sensor_type;location;lat;lon;timestamp;temperature;humidity
21193;DHT22;10754;51.106;7.164;2023-11-19T00:00:50;13.00;1.00
21193;DHT22;10754;51.106;7.164;2023-11-19T00:03:16;13.10;1.00
21193;DHT22;10754;51.106;7.164;2023-11-19T00:05:43;13.10;1.00
21193;DHT22;10754;51.106;7.164;2023-11-19T00:08:10;13.10;1.00
21193;DHT22;10754;51.106;7.164;2023-11-19T00:10:35;13.10;1.00
21193;DHT22;10754;51.106;7.164;2023-11-19T00:13:01;13.10;1.00
21193;DHT22;10754;51.106;7.164;2023-11-19T00:15:28;13.10;1.00
21193;DHT22;10754;51.106;7.164;2023-11-19T00:17:53;13.20;1.00
21193;DHT22;10754;51.106;7.164;2023-11-19T00:20:20;13.20;1.00
21193;DHT22;10754;51.106;7.164;2023-11-19T00:22:47;13.30;1.00
21193;DHT22;10754;51.106;7.164;2023-11-19T00:25:13;13.40;1.00
21193;DHT22;10754;51.106;7.164;2023-11-19T00:27:39;13.50;1.00
21193;DHT22;10754;51.106;7.164;2023-11-19T00:30:06;13.60;1.00
21193;DHT22;10754;51.106;7.164;2023-11-19T00:32:35;13.60;1.00
21193;DHT22;10754;51.106;7.164;2023-11-19T00:35:01;13.40;1.00
21193;DHT22;10754;51.106;7.164;2023-11-19T00:37:28;13.30;1.00
21193;DHT22;10754;51.106;7.164;2023-11-19T00:39:53;13.30;1.00
21193;DHT22;10754;51.106;7.164;2023-11-19T00:42:19;13.10;1.00
21193;DHT22;10754;51.106;7.164;2023-11-19T00:44:44;13.30;1.00
21193;DHT22;10754;51.106;7.164;2023-11-19T00:47:11;13.40;1.00
21193;DHT22;10754;51.106;7.164;2023-11-19T00:49:36;13.50;1.00
21193;DHT22;10754;51.106;7.164;2023-11-19T00:52:02;13.50;1.00
21193;DHT22;10754;51.106;7.164;2023-11-19T00:54:27;13.20;1.00
21193;DHT22;10754;51.106;7.164;2023-11-19T00:56:53;13.10;1.00
21193;DHT22;10754;51.106;7.164;2023-11-19T00:59:19;13.30;1.00
21193;DHT22;10754;51.106;7.164;2023-11-19T01:01:45;13.40;1.00
21193;DHT22;10754;51.106;7.164;2023-11-19T01:04:10;13.20;1.00
21193;DHT22;10754;51.106;7.164;2023-11-19T01:06:36;13.00;1.00
21193;DHT22;10754;51.106;7.164;2023-11-19T01:09:01;13.30;1.00
21193;DHT22;10754;51.106;7.164;2023-11-19T01:11:27;13.40;1.00
21193;DHT22;10754;51.106;7.164;2023-11-19T01:13:54;13.60;1.00
21193;DHT22;10754;51.106;7.164;2023-11-19T01:16:19;13.60;1.00
21193;DHT22;10754;51.106;7.164;2023-11-19T01:18:47;13.60;1.00
21193;DHT22;10754;51.106;7.164;2023-11-19T01:21:13;13.40;1.00
21193;DHT22;10754;51.106;7.164;2023-11-19T01:23:42;13.20;1.00
21193;DHT22;10754;51.106;7.164;2023-11-19T01:26:11;13.10;1.00
21193;DHT22;10754;51.106;7.164;2023-11-19T01:28:38;13.30;1.00
21193;DHT22;10754;51.106;7.164;2023-11-19T01:31:05;13.40;1.00
21193;DHT22;10754;51.106;7.164;2023-11-19T01:33:35;13.30;1.00
21193;DHT22;10754;51.106;7.164;2023-11-19T01:36:01;13.30;1.00
21193;DHT22;10754;51.106;7.164;2023-11-19T01:38:26;13.30;1.00
21193;DHT22;10754;51.106;7.164;2023-11-19T01:40:56;13.20;1.00
21193;DHT22;10754;51.106;7.164;2023-11-19T01:43:36;13.10;1.00
21193;DHT22;10754;51.106;7.164;2023-11-19T01:46:02;13.10;1.00
21193;DHT22;10754;51.106;7.164;2023-11-19T01:48:34;13.20;1.00
21193;DHT22;10754;51.106;7.164;2023-11-19T01:51:01;13.30;1.00
21193;DHT22;10754;51.106;7.164;2023-11-19T01:53:28;13.20;1.00
21193;DHT22;10754;51.106;7.164;2023-11-19T01:55:54;13.30;1.00
21193;DHT22;10754;51.106;7.164;2023-11-19T01:58:21;13.30;1.00
21193;DHT22;10754;51.106;7.164;2023-11-19T02:00:46;13.40;1.00
21193;DHT22;10754;51.106;7.164;2023-11-19T02:03:13;13.50;1.00
21193;DHT22;10754;51.106;7.164;2023-11-19T02:05:39;13.40;1.00
21193;DHT22;10754;51.106;7.164;2023-11-19T02:08:05;13.40;1.00
21193;DHT22;10754;51.106;7.164;2023-11-19T02:10:31;13.40;1.00
21193;DHT22;10754;51.106;7.164;2023-11-19T02:12:57;13.40;1.00
21193;DHT22;10754;51.106;7.164;2023-11-19T02:15:23;13.40;1.00
21193;DHT22;10754;51.106;7.164;2023-11-19T02:17:50;13.40;1.00
21193;DHT22;10754;51.106;7.164;2023-11-19T02:20:16;13.40;1.00
21193;DHT22;10754;51.106;7.164;2023-11-19T02:22:43;13.30;1.00
21193;DHT22;10754;51.106;7.164;2023-11-19T02:25:28;13.30;1.00
21193;DHT22;10754;51.106;7.164;2023-11-19T02:27:58;13.50;1.00
21193;DHT22;10754;51.106;7.164;2023-11-19T02:30:25;13.40;1.00
21193;DHT22;10754;51.106;7.164;2023-11-19T02:33:00;13.40;1.00
21193;DHT22;10754;51.106;7.164;2023-11-19T02:35:31;13.40;1.00
21193;DHT22;10754;51.106;7.164;2023-11-19T02:37:57;13.40;1.00
21193;DHT22;10754;51.106;7.164;2023-11-19T02:40:24;13.40;1.00
21193;DHT22;10754;51.106;7.164;2023-11-19T02:42:50;13.50;1.00
21193;DHT22;10754;51.106;7.164;2023-11-19T02:45:16;13.50;1.00
21193;DHT22;10754;51.106;7.164;2023-11-19T02:47:43;13.50;1.00
21193;DHT22;10754;51.106;7.164;2023-11-19T02:50:13;13.50;1.00
21193;DHT22;10754;51.106;7.164;2023-11-19T02:52:42;13.50;1.00
21193;DHT22;10754;51.106;7.164;2023-11-19T02:55:09;13.50;1.00
21193;DHT22;10754;51.106;7.164;2023-11-19T02:57:35;13.50;1.00
21193;DHT22;10754;51.106;7.164;2023-11-19T03:00:02;13.50;1.00
21193;DHT22;10754;51.106;7.164;2023-11-19T03:02:39;13.40;1.00
21193;DHT22;10754;51.106;7.164;2023-11-19T03:05:10;13.40;1.00
21193;DHT22;10754;51.106;7.164;2023-11-19T03:07:36;13.40;1.00
21193;DHT22;10754;51.106;7.164;2023-11-19T03:10:02;13.40;1.00
21193;DHT22;10754;51.106;7.164;2023-11-19T03:12:27;13.40;1.00
21193;DHT22;10754;51.106;7.164;2023-11-19T03:14:53;13.40;1.00
21193;DHT22;10754;51.106;7.164;2023-11-19T03:17:20;13.50;1.00
21193;DHT22;10754;51.106;7.164;2023-11-19T03:19:46;13.50;1.00
21193;DHT22;10754;51.106;7.164;2023-11-19T03:22:11;13.50;1.00
21193;DHT22;10754;51.106;7.164;2023-11-19T03:24:37;13.50;1.00
21193;DHT22;10754;51.106;7.164;2023-11-19T03:27:02;13.50;1.00
21193;DHT22;10754;51.106;7.164;2023-11-19T03:29:29;13.50;1.00
21193;DHT22;10754;51.106;7.164;2023-11-19T03:31:54;13.60;1.00
21193;DHT22;10754;51.106;7.164;2023-11-19T03:34:20;13.60;1.00
21193;DHT22;10754;51.106;7.164;2023-11-19T03:36:45;13.60;1.00
21193;DHT22;10754;51.106;7.164;2023-11-19T03:39:11;13.60;1.00
21193;DHT22;10754;51.106;7.164;2023-11-19T03:41:36;13.60;1.00
21193;DHT22;10754;51.106;7.164;2023-11-19T03:44:02;13.50;1.00
21193;DHT22;10754;51.106;7.164;2023-11-19T03:46:27;13.60;1.00
21193;DHT22;10754;51.106;7.164;2023-11-19T03:48:55;13.60;1.00
21193;DHT22;10754;51.106;7.164;2023-11-19T03:51:20;13.60;1.00
21193;DHT22;10754;51.106;7.164;2023-11-19T03:53:46;13.50;1.00
21193;DHT22;10754;51.106;7.164;2023-11-19T03:56:12;13.50;1.00
21193;DHT22;10754;51.106;7.164;2023-11-19T03:58:38;13.50;1.00
21193;DHT22;10754;51.106;7.164;2023-11-19T04:01:13;13.80;1.00
21193;DHT22;10754;51.106;7.164;2023-11-19T04:03:39;13.90;1.00
21193;DHT22;10754;51.106;7.164;2023-11-19T04:06:04;13.90;1.00
21193;DHT22;10754;51.106;7.164;2023-11-19T04:08:30;13.90;1.00
21193;DHT22;10754;51.106;7.164;2023-11-19T04:10:56;13.90;1.00
21193;DHT22;10754;51.106;7.164;2023-11-19T04:13:21;13.80;1.00
21193;DHT22;10754;51.106;7.164;2023-11-19T04:15:49;13.80;1.00
21193;DHT22;10754;51.106;7.164;2023-11-19T04:18:15;13.80;1.00
21193;DHT22;10754;51.106;7.164;2023-11-19T04:20:41;13.70;1.00
21193;DHT22;10754;51.106;7.164;2023-11-19T04:23:10;13.80;1.00
21193;DHT22;10754;51.106;7.164;2023-11-19T04:25:36;13.80;1.00
21193;DHT22;10754;51.106;7.164;2023-11-19T04:28:02;13.70;1.00
21193;DHT22;10754;51.106;7.164;2023-11-19T04:30:28;13.70;1.00
21193;DHT22;10754;51.106;7.164;2023-11-19T04:32:53;13.70;1.00
21193;DHT22;10754;51.106;7.164;2023-11-19T04:35:19;13.70;1.00
21193;DHT22;10754;51.106;7.164;2023-11-19T04:37:44;13.70;1.00
21193;DHT22;10754;51.106;7.164;2023-11-19T04:40:10;13.60;1.00
21193;DHT22;10754;51.106;7.164;2023-11-19T04:42:37;13.60;1.00
21193;DHT22;10754;51.106;7.164;2023-11-19T04:45:06;13.60;1.00
21193;DHT22;10754;51.106;7.164;2023-11-19T04:47:32;13.60;1.00
21193;DHT22;10754;51.106;7.164;2023-11-19T04:49:58;13.70;1.00
21193;DHT22;10754;51.106;7.164;2023-11-19T04:52:24;13.70;1.00
21193;DHT22;10754;51.106;7.164;2023-11-19T04:54:49;13.70;1.00
21193;DHT22;10754;51.106;7.164;2023-11-19T04:57:15;13.70;1.00
21193;DHT22;10754;51.106;7.164;2023-11-19T04:59:41;13.80;1.00
21193;DHT22;10754;51.106;7.164;2023-11-19T05:02:06;13.80;1.00
21193;DHT22;10754;51.106;7.164;2023-11-19T05:04:33;13.80;1.00
21193;DHT22;10754;51.106;7.164;2023-11-19T05:06:59;13.90;1.00
21193;DHT22;10754;51.106;7.164;2023-11-19T05:09:24;13.90;1.00
21193;DHT22;10754;51.106;7.164;2023-11-19T05:11:50;13.80;1.00
21193;DHT22;10754;51.106;7.164;2023-11-19T05:14:15;14.00;1.00
21193;DHT22;10754;51.106;7.164;2023-11-19T05:16:41;13.90;1.00
21193;DHT22;10754;51.106;7.164;2023-11-19T05:19:08;14.00;1.00
21193;DHT22;10754;51.106;7.164;2023-11-19T05:21:34;14.00;1.00
21193;DHT22;10754;51.106;7.164;2023-11-19T05:24:04;14.00;1.00
21193;DHT22;10754;51.106;7.164;2023-11-19T05:26:32;14.00;1.00
21193;DHT22;10754;51.106;7.164;2023-11-19T05:28:58;13.90;1.00
21193;DHT22;10754;51.106;7.164;2023-11-19T05:31:23;13.90;1.00
21193;DHT22;10754;51.106;7.164;2023-11-19T05:33:49;13.80;1.00
21193;DHT22;10754;51.106;7.164;2023-11-19T05:36:14;13.90;1.00
21193;DHT22;10754;51.106;7.164;2023-11-19T05:38:40;13.90;1.00
21193;DHT22;10754;51.106;7.164;2023-11-19T05:41:05;13.90;1.00
21193;DHT22;10754;51.106;7.164;2023-11-19T05:43:32;14.00;1.00
21193;DHT22;10754;51.106;7.164;2023-11-19T05:45:57;13.90;1.00
21193;DHT22;10754;51.106;7.164;2023-11-19T05:48:25;13.90;1.00
21193;DHT22;10754;51.106;7.164;2023-11-19T05:50:51;13.90;1.00
21193;DHT22;10754;51.106;7.164;2023-11-19T05:53:16;13.80;1.00
21193;DHT22;10754;51.106;7.164;2023-11-19T05:55:42;13.80;1.00
21193;DHT22;10754;51.106;7.164;2023-11-19T05:58:21;13.70;1.00
21193;DHT22;10754;51.106;7.164;2023-11-19T06:00:47;13.70;1.00
21193;DHT22;10754;51.106;7.164;2023-11-19T06:03:13;13.70;1.00
21193;DHT22;10754;51.106;7.164;2023-11-19T06:05:38;13.80;1.00
21193;DHT22;10754;51.106;7.164;2023-11-19T06:08:04;13.80;1.00
21193;DHT22;10754;51.106;7.164;2023-11-19T06:10:32;13.90;1.00
21193;DHT22;10754;51.106;7.164;2023-11-19T06:12:58;14.10;1.00
21193;DHT22;10754;51.106;7.164;2023-11-19T06:15:28;14.00;1.00
21193;DHT22;10754;51.106;7.164;2023-11-19T06:17:54;13.90;1.00
21193;DHT22;10754;51.106;7.164;2023-11-19T06:20:20;13.90;1.00
21193;DHT22;10754;51.106;7.164;2023-11-19T06:22:46;13.70;1.00
21193;DHT22;10754;51.106;7.164;2023-11-19T06:25:12;13.80;1.00
21193;DHT22;10754;51.106;7.164;2023-11-19T06:27:40;13.90;1.00
21193;DHT22;10754;51.106;7.164;2023-11-19T06:30:06;13.90;1.00
21193;DHT22;10754;51.106;7.164;2023-11-19T06:32:32;13.80;1.00
21193;DHT22;10754;51.106;7.164;2023-11-19T06:34:58;13.80;1.00
21193;DHT22;10754;51.106;7.164;2023-11-19T06:37:23;13.90;1.00
21193;DHT22;10754;51.106;7.164;2023-11-19T06:39:49;13.70;1.00
21193;DHT22;10754;51.106;7.164;2023-11-19T06:42:14;13.70;1.00
21193;DHT22;10754;51.106;7.164;2023-11-19T06:44:40;13.80;1.00
21193;DHT22;10754;51.106;7.164;2023-11-19T06:47:05;13.80;1.00
21193;DHT22;10754;51.106;7.164;2023-11-19T06:49:31;13.90;1.00
21193;DHT22;10754;51.106;7.164;2023-11-19T06:51:58;13.90;1.00
21193;DHT22;10754;51.106;7.164;2023-11-19T06:54:23;13.70;1.00
21193;DHT22;10754;51.106;7.164;2023-11-19T06:56:49;13.60;1.00
21193;DHT22;10754;51.106;7.164;2023-11-19T06:59:14;13.60;1.00
21193;DHT22;10754;51.106;7.164;2023-11-19T07:01:40;13.60;1.00
21193;DHT22;10754;51.106;7.164;2023-11-19T07:04:11;13.50;1.00
21193;DHT22;10754;51.106;7.164;2023-11-19T07:06:36;13.40;1.00
21193;DHT22;10754;51.106;7.164;2023-11-19T07:09:03;13.50;1.00
21193;DHT22;10754;51.106;7.164;2023-11-19T07:11:41;13.50;1.00
21193;DHT22;10754;51.106;7.164;2023-11-19T07:14:07;13.50;1.00
21193;DHT22;10754;51.106;7.164;2023-11-19T07:16:34;13.60;1.00
21193;DHT22;10754;51.106;7.164;2023-11-19T07:19:00;13.60;1.00
21193;DHT22;10754;51.106;7.164;2023-11-19T07:21:26;13.60;1.00
21193;DHT22;10754;51.106;7.164;2023-11-19T07:23:54;13.60;1.00
21193;DHT22;10754;51.106;7.164;2023-11-19T07:26:19;13.60;1.00
21193;DHT22;10754;51.106;7.164;2023-11-19T07:28:45;13.50;1.00
21193;DHT22;10754;51.106;7.164;2023-11-19T07:31:10;13.40;1.00
21193;DHT22;10754;51.106;7.164;2023-11-19T07:33:36;13.40;1.00
21193;DHT22;10754;51.106;7.164;2023-11-19T07:36:02;13.50;1.00
21193;DHT22;10754;51.106;7.164;2023-11-19T07:38:27;13.30;1.00
21193;DHT22;10754;51.106;7.164;2023-11-19T07:40:53;13.20;1.00
21193;DHT22;10754;51.106;7.164;2023-11-19T07:43:19;13.30;1.00
21193;DHT22;10754;51.106;7.164;2023-11-19T07:45:44;13.30;1.00
21193;DHT22;10754;51.106;7.164;2023-11-19T07:48:11;13.30;1.00
21193;DHT22;10754;51.106;7.164;2023-11-19T07:50:39;13.20;1.00
21193;DHT22;10754;51.106;7.164;2023-11-19T07:53:06;13.20;1.00
21193;DHT22;10754;51.106;7.164;2023-11-19T07:55:33;13.20;1.00
21193;DHT22;10754;51.106;7.164;2023-11-19T07:57:58;13.20;1.00
21193;DHT22;10754;51.106;7.164;2023-11-19T08:00:24;13.20;1.00
21193;DHT22;10754;51.106;7.164;2023-11-19T08:02:49;13.20;1.00
21193;DHT22;10754;51.106;7.164;2023-11-19T08:05:15;13.20;1.00
21193;DHT22;10754;51.106;7.164;2023-11-19T08:07:40;13.30;1.00
21193;DHT22;10754;51.106;7.164;2023-11-19T08:10:07;13.20;1.00
21193;DHT22;10754;51.106;7.164;2023-11-19T08:12:35;13.30;1.00
21193;DHT22;10754;51.106;7.164;2023-11-19T08:15:04;13.30;1.00
21193;DHT22;10754;51.106;7.164;2023-11-19T08:17:30;13.30;1.00
21193;DHT22;10754;51.106;7.164;2023-11-19T08:19:56;13.20;1.00
21193;DHT22;10754;51.106;7.164;2023-11-19T08:22:21;13.30;1.00
21193;DHT22;10754;51.106;7.164;2023-11-19T08:24:48;13.30;1.00
21193;DHT22;10754;51.106;7.164;2023-11-19T08:27:13;13.30;1.00
21193;DHT22;10754;51.106;7.164;2023-11-19T08:29:39;13.50;1.00
21193;DHT22;10754;51.106;7.164;2023-11-19T08:32:06;13.50;1.00
21193;DHT22;10754;51.106;7.164;2023-11-19T08:34:31;13.60;1.00
21193;DHT22;10754;51.106;7.164;2023-11-19T08:36:57;13.70;1.00
21193;DHT22;10754;51.106;7.164;2023-11-19T08:39:22;13.80;1.00
21193;DHT22;10754;51.106;7.164;2023-11-19T08:41:48;13.70;1.00
21193;DHT22;10754;51.106;7.164;2023-11-19T08:44:14;13.90;1.00
21193;DHT22;10754;51.106;7.164;2023-11-19T08:46:47;14.10;1.00
21193;DHT22;10754;51.106;7.164;2023-11-19T08:49:12;14.40;1.00
21193;DHT22;10754;51.106;7.164;2023-11-19T08:51:38;14.40;1.00
21193;DHT22;10754;51.106;7.164;2023-11-19T08:54:03;14.00;1.00
21193;DHT22;10754;51.106;7.164;2023-11-19T08:56:29;14.00;1.00
21193;DHT22;10754;51.106;7.164;2023-11-19T08:58:58;14.00;1.00
21193;DHT22;10754;51.106;7.164;2023-11-19T09:01:23;14.10;1.00
21193;DHT22;10754;51.106;7.164;2023-11-19T09:03:50;14.10;1.00
21193;DHT22;10754;51.106;7.164;2023-11-19T09:06:15;14.30;1.00
21193;DHT22;10754;51.106;7.164;2023-11-19T09:08:42;14.40;1.00
21193;DHT22;10754;51.106;7.164;2023-11-19T09:11:08;14.50;1.00
21193;DHT22;10754;51.106;7.164;2023-11-19T09:13:37;14.40;1.00
21193;DHT22;10754;51.106;7.164;2023-11-19T09:16:02;14.50;1.00
21193;DHT22;10754;51.106;7.164;2023-11-19T09:18:29;14.70;1.00
21193;DHT22;10754;51.106;7.164;2023-11-19T09:20:55;14.60;1.00
21193;DHT22;10754;51.106;7.164;2023-11-19T09:23:20;14.50;1.00
21193;DHT22;10754;51.106;7.164;2023-11-19T09:25:46;14.40;1.00
21193;DHT22;10754;51.106;7.164;2023-11-19T09:28:11;14.40;1.00
21193;DHT22;10754;51.106;7.164;2023-11-19T09:30:38;14.40;1.00
21193;DHT22;10754;51.106;7.164;2023-11-19T09:33:04;14.60;1.00
21193;DHT22;10754;51.106;7.164;2023-11-19T09:35:29;14.50;1.00
21193;DHT22;10754;51.106;7.164;2023-11-19T09:37:55;14.50;1.00
21193;DHT22;10754;51.106;7.164;2023-11-19T09:40:20;14.50;1.00
21193;DHT22;10754;51.106;7.164;2023-11-19T09:42:47;14.50;1.00
21193;DHT22;10754;51.106;7.164;2023-11-19T09:45:15;14.50;1.00
21193;DHT22;10754;51.106;7.164;2023-11-19T09:47:44;14.50;1.00
21193;DHT22;10754;51.106;7.164;2023-11-19T09:50:14;14.70;1.00
21193;DHT22;10754;51.106;7.164;2023-11-19T09:52:41;14.70;1.00
21193;DHT22;10754;51.106;7.164;2023-11-19T09:55:06;14.60;1.00
21193;DHT22;10754;51.106;7.164;2023-11-19T09:57:33;14.70;1.00
21193;DHT22;10754;51.106;7.164;2023-11-19T10:00:00;14.70;1.00
21193;DHT22;10754;51.106;7.164;2023-11-19T10:02:27;14.80;1.00
21193;DHT22;10754;51.106;7.164;2023-11-19T10:04:55;14.80;1.00
21193;DHT22;10754;51.106;7.164;2023-11-19T10:07:20;14.70;1.00
21193;DHT22;10754;51.106;7.164;2023-11-19T10:09:46;14.70;1.00
21193;DHT22;10754;51.106;7.164;2023-11-19T10:12:13;14.70;1.00
21193;DHT22;10754;51.106;7.164;2023-11-19T10:14:39;14.80;1.00
21193;DHT22;10754;51.106;7.164;2023-11-19T10:17:07;14.90;1.00
21193;DHT22;10754;51.106;7.164;2023-11-19T10:19:33;14.90;1.00
21193;DHT22;10754;51.106;7.164;2023-11-19T10:22:03;14.90;1.00
21193;DHT22;10754;51.106;7.164;2023-11-19T10:24:33;14.80;1.00
21193;DHT22;10754;51.106;7.164;2023-11-19T10:27:01;15.10;1.00
21193;DHT22;10754;51.106;7.164;2023-11-19T10:29:29;15.40;1.00
21193;DHT22;10754;51.106;7.164;2023-11-19T10:31:58;15.70;1.00
21193;DHT22;10754;51.106;7.164;2023-11-19T10:34:27;15.60;1.00
21193;DHT22;10754;51.106;7.164;2023-11-19T10:36:53;15.30;1.00
21193;DHT22;10754;51.106;7.164;2023-11-19T10:39:19;15.50;1.00
21193;DHT22;10754;51.106;7.164;2023-11-19T10:41:46;15.80;1.00
21193;DHT22;10754;51.106;7.164;2023-11-19T10:44:11;15.60;1.00
21193;DHT22;10754;51.106;7.164;2023-11-19T10:46:41;15.60;1.00
21193;DHT22;10754;51.106;7.164;2023-11-19T10:49:08;15.50;1.00
21193;DHT22;10754;51.106;7.164;2023-11-19T10:51:33;15.50;1.00
21193;DHT22;10754;51.106;7.164;2023-11-19T10:54:03;15.50;1.00
21193;DHT22;10754;51.106;7.164;2023-11-19T10:56:31;15.50;1.00
21193;DHT22;10754;51.106;7.164;2023-11-19T10:58:59;15.50;1.00
21193;DHT22;10754;51.106;7.164;2023-11-19T11:01:29;15.60;1.00
21193;DHT22;10754;51.106;7.164;2023-11-19T11:03:59;15.40;1.00
21193;DHT22;10754;51.106;7.164;2023-11-19T11:06:27;15.30;1.00
21193;DHT22;10754;51.106;7.164;2023-11-19T11:08:53;15.30;1.00
21193;DHT22;10754;51.106;7.164;2023-11-19T11:11:20;15.40;1.00
21193;DHT22;10754;51.106;7.164;2023-11-19T11:13:47;15.40;1.00
21193;DHT22;10754;51.106;7.164;2023-11-19T11:16:15;15.20;1.00
21193;DHT22;10754;51.106;7.164;2023-11-19T11:18:45;15.10;1.00
21193;DHT22;10754;51.106;7.164;2023-11-19T11:21:17;15.10;1.00
21193;DHT22;10754;51.106;7.164;2023-11-19T11:32:17;15.60;1.00
21193;DHT22;10754;51.106;7.164;2023-11-19T11:37:30;15.50;1.00
21193;DHT22;10754;51.106;7.164;2023-11-19T11:39:58;15.50;1.00
21193;DHT22;10754;51.106;7.164;2023-11-19T11:50:12;15.80;1.00
21193;DHT22;10754;51.106;7.164;2023-11-19T11:55:37;15.60;1.00
21193;DHT22;10754;51.106;7.164;2023-11-19T11:58:03;15.60;1.00
21193;DHT22;10754;51.106;7.164;2023-11-19T12:00:31;16.00;1.00
21193;DHT22;10754;51.106;7.164;2023-11-19T12:02:59;16.10;1.00
21193;DHT22;10754;51.106;7.164;2023-11-19T12:05:25;16.20;1.00
21193;DHT22;10754;51.106;7.164;2023-11-19T12:07:55;16.10;1.00
21193;DHT22;10754;51.106;7.164;2023-11-19T12:10:21;15.90;1.00
21193;DHT22;10754;51.106;7.164;2023-11-19T12:12:47;16.20;1.00
21193;DHT22;10754;51.106;7.164;2023-11-19T12:15:13;16.10;1.00
21193;DHT22;10754;51.106;7.164;2023-11-19T12:17:47;15.70;1.00
21193;DHT22;10754;51.106;7.164;2023-11-19T12:20:20;16.00;1.00
21193;DHT22;10754;51.106;7.164;2023-11-19T12:22:47;16.00;1.00
21193;DHT22;10754;51.106;7.164;2023-11-19T12:25:14;16.20;1.00
21193;DHT22;10754;51.106;7.164;2023-11-19T12:27:46;16.00;1.00
21193;DHT22;10754;51.106;7.164;2023-11-19T12:30:12;16.20;1.00
21193;DHT22;10754;51.106;7.164;2023-11-19T12:32:45;16.30;1.00
21193;DHT22;10754;51.106;7.164;2023-11-19T12:35:11;15.90;1.00
21193;DHT22;10754;51.106;7.164;2023-11-19T12:37:51;15.90;1.00
21193;DHT22;10754;51.106;7.164;2023-11-19T12:40:21;16.00;1.00
21193;DHT22;10754;51.106;7.164;2023-11-19T12:42:51;16.20;1.00
21193;DHT22;10754;51.106;7.164;2023-11-19T12:45:17;16.10;1.00
21193;DHT22;10754;51.106;7.164;2023-11-19T12:47:44;16.10;1.00
21193;DHT22;10754;51.106;7.164;2023-11-19T12:50:12;16.00;1.00
21193;DHT22;10754;51.106;7.164;2023-11-19T12:52:38;15.90;1.00
21193;DHT22;10754;51.106;7.164;2023-11-19T12:55:25;16.00;1.00
21193;DHT22;10754;51.106;7.164;2023-11-19T12:57:51;15.90;1.00
21193;DHT22;10754;51.106;7.164;2023-11-19T13:00:24;15.80;1.00
21193;DHT22;10754;51.106;7.164;2023-11-19T13:02:57;15.70;1.00
21193;DHT22;10754;51.106;7.164;2023-11-19T13:08:02;15.50;1.00
21193;DHT22;10754;51.106;7.164;2023-11-19T13:10:28;15.60;1.00
21193;DHT22;10754;51.106;7.164;2023-11-19T13:13:04;15.70;1.00
21193;DHT22;10754;51.106;7.164;2023-11-19T13:15:31;15.60;1.00
21193;DHT22;10754;51.106;7.164;2023-11-19T13:17:57;15.50;1.00
21193;DHT22;10754;51.106;7.164;2023-11-19T13:20:23;15.10;1.00
21193;DHT22;10754;51.106;7.164;2023-11-19T13:22:59;15.10;1.00
21193;DHT22;10754;51.106;7.164;2023-11-19T13:25:25;15.40;1.00
21193;DHT22;10754;51.106;7.164;2023-11-19T13:27:51;15.50;1.00
21193;DHT22;10754;51.106;7.164;2023-11-19T13:30:16;15.50;1.00
21193;DHT22;10754;51.106;7.164;2023-11-19T13:32:42;15.50;1.00
21193;DHT22;10754;51.106;7.164;2023-11-19T13:35:09;15.30;1.00
21193;DHT22;10754;51.106;7.164;2023-11-19T13:37:35;15.20;1.00
21193;DHT22;10754;51.106;7.164;2023-11-19T13:40:01;15.30;1.00
21193;DHT22;10754;51.106;7.164;2023-11-19T13:42:26;15.20;1.00
21193;DHT22;10754;51.106;7.164;2023-11-19T13:44:52;15.30;1.00
21193;DHT22;10754;51.106;7.164;2023-11-19T13:47:18;15.60;1.00
21193;DHT22;10754;51.106;7.164;2023-11-19T13:49:44;15.80;1.00
21193;DHT22;10754;51.106;7.164;2023-11-19T13:52:10;15.70;1.00
21193;DHT22;10754;51.106;7.164;2023-11-19T13:54:37;15.60;1.00
21193;DHT22;10754;51.106;7.164;2023-11-19T13:57:03;15.40;1.00
21193;DHT22;10754;51.106;7.164;2023-11-19T13:59:32;15.30;1.00
21193;DHT22;10754;51.106;7.164;2023-11-19T14:01:58;15.30;1.00
21193;DHT22;10754;51.106;7.164;2023-11-19T14:04:24;15.30;1.00
21193;DHT22;10754;51.106;7.164;2023-11-19T14:06:50;15.30;1.00
21193;DHT22;10754;51.106;7.164;2023-11-19T14:09:16;15.30;1.00
21193;DHT22;10754;51.106;7.164;2023-11-19T14:11:42;15.20;1.00
21193;DHT22;10754;51.106;7.164;2023-11-19T14:14:08;15.20;1.00
21193;DHT22;10754;51.106;7.164;2023-11-19T14:16:33;15.10;1.00
21193;DHT22;10754;51.106;7.164;2023-11-19T14:18:59;15.10;1.00
21193;DHT22;10754;51.106;7.164;2023-11-19T14:21:25;15.10;1.00
21193;DHT22;10754;51.106;7.164;2023-11-19T14:23:52;15.00;1.00
21193;DHT22;10754;51.106;7.164;2023-11-19T14:26:18;15.00;1.00
21193;DHT22;10754;51.106;7.164;2023-11-19T14:28:43;15.00;1.00
21193;DHT22;10754;51.106;7.164;2023-11-19T14:31:09;15.10;1.00
21193;DHT22;10754;51.106;7.164;2023-11-19T14:33:34;15.10;1.00
21193;DHT22;10754;51.106;7.164;2023-11-19T14:36:01;15.10;1.00
21193;DHT22;10754;51.106;7.164;2023-11-19T14:38:27;15.10;1.00
21193;DHT22;10754;51.106;7.164;2023-11-19T14:40:52;15.10;1.00
21193;DHT22;10754;51.106;7.164;2023-11-19T14:43:18;14.80;1.00
21193;DHT22;10754;51.106;7.164;2023-11-19T14:45:43;14.90;1.00
21193;DHT22;10754;51.106;7.164;2023-11-19T14:48:09;14.90;1.00
21193;DHT22;10754;51.106;7.164;2023-11-19T14:50:35;14.90;1.00
21193;DHT22;10754;51.106;7.164;2023-11-19T14:53:01;15.00;1.00
21193;DHT22;10754;51.106;7.164;2023-11-19T14:55:27;15.10;1.00
21193;DHT22;10754;51.106;7.164;2023-11-19T14:57:52;15.30;1.00
21193;DHT22;10754;51.106;7.164;2023-11-19T15:00:19;15.10;1.00
21193;DHT22;10754;51.106;7.164;2023-11-19T15:02:44;15.10;1.00
21193;DHT22;10754;51.106;7.164;2023-11-19T15:05:10;15.20;1.00
21193;DHT22;10754;51.106;7.164;2023-11-19T15:07:39;14.90;1.00
21193;DHT22;10754;51.106;7.164;2023-11-19T15:10:06;14.90;1.00
21193;DHT22;10754;51.106;7.164;2023-11-19T15:12:37;14.80;1.00
21193;DHT22;10754;51.106;7.164;2023-11-19T15:15:06;14.70;1.00
21193;DHT22;10754;51.106;7.164;2023-11-19T15:17:32;14.70;1.00
21193;DHT22;10754;51.106;7.164;2023-11-19T15:19:57;14.90;1.00
21193;DHT22;10754;51.106;7.164;2023-11-19T15:22:23;15.10;1.00
21193;DHT22;10754;51.106;7.164;2023-11-19T15:24:48;15.00;1.00
21193;DHT22;10754;51.106;7.164;2023-11-19T15:27:14;15.10;1.00
21193;DHT22;10754;51.106;7.164;2023-11-19T15:29:39;15.10;1.00
21193;DHT22;10754;51.106;7.164;2023-11-19T15:32:05;15.10;1.00
21193;DHT22;10754;51.106;7.164;2023-11-19T15:34:32;15.00;1.00
21193;DHT22;10754;51.106;7.164;2023-11-19T15:36:58;14.90;1.00
21193;DHT22;10754;51.106;7.164;2023-11-19T15:39:25;14.90;1.00
21193;DHT22;10754;51.106;7.164;2023-11-19T15:41:52;15.00;1.00
21193;DHT22;10754;51.106;7.164;2023-11-19T15:44:18;14.90;1.00
21193;DHT22;10754;51.106;7.164;2023-11-19T15:46:43;15.00;1.00
21193;DHT22;10754;51.106;7.164;2023-11-19T15:49:09;15.10;1.00
21193;DHT22;10754;51.106;7.164;2023-11-19T15:51:34;15.20;1.00
21193;DHT22;10754;51.106;7.164;2023-11-19T15:54:00;15.00;1.00
21193;DHT22;10754;51.106;7.164;2023-11-19T15:56:25;14.60;1.00
21193;DHT22;10754;51.106;7.164;2023-11-19T15:58:51;14.90;1.00
21193;DHT22;10754;51.106;7.164;2023-11-19T16:01:17;14.90;1.00
21193;DHT22;10754;51.106;7.164;2023-11-19T16:03:43;14.70;1.00
21193;DHT22;10754;51.106;7.164;2023-11-19T16:06:09;14.50;1.00